Lawrence, Kansas
Current Conditions -  °F | °C
As of 6:52 AM on Sunday 23 Nov 2014 (Local Time) from KLWC Reporting Station
Haze Haze  
Wind Chill: 53°   Ceiling: 900
Heat Index: 53°   Visibility: 6mi
Dew Point: 51°   Wind: 9mph
Humidity: 93%   Direction: 150°SSE
Pressure: 29.51"   Gusts: NA
Location:  38.97°N, 95.24°W
Report Text: KLWC 231252Z AUTO 15008KT 6SM BR OVC009 12/11 A2951 RMK AO2 SLP991 T01170106
Loading
Personal Weather Stations






























Interactive Weather Map New forecast layout! Learn more

10-Day Weather Forecast

Advertisements
Track Severe Weather on mobile